Sao Joaquim, Brazil
Current Conditions -  °F | °C
As of 9:00 PM on Tuesday 25 Nov 2014 (Local Time) from SBCM Reporting Station
Broken Clouds Broken Clouds  
Wind Chill: 75°   Ceiling: 7000
Heat Index: 75°   Visibility: 6mi
Dew Point: 68°   Wind: 5mph
Humidity: 78%   Direction: 240°WSW
Pressure: 29.83"   Gusts: NA
Location:  28.29°S, 49.95°W
Report Text: SBCM 252300Z 24004KT 9999 FEW040 BKN070 24/20 Q1010
Loading
Personal Weather Stations






























Interactive Weather Map New forecast layout! Learn more

10-Day Weather Forecast

Advertisements
Track Severe Weather on mobile